sensor_id;sensor_type;location;lat;lon;timestamp;P1;durP1;ratioP1;P2;durP2;ratioP2
13291;SDS011;6714;53.056;8.690;2022-08-04T00:00:32;8.97;;;6.47;;
13291;SDS011;6714;53.056;8.690;2022-08-04T00:03:18;9.57;;;6.47;;
13291;SDS011;6714;53.056;8.690;2022-08-04T00:06:01;10.27;;;6.83;;
13291;SDS011;6714;53.056;8.690;2022-08-04T00:08:45;10.93;;;5.87;;
13291;SDS011;6714;53.056;8.690;2022-08-04T00:11:29;7.67;;;6.07;;
13291;SDS011;6714;53.056;8.690;2022-08-04T00:14:12;9.20;;;5.83;;
13291;SDS011;6714;53.056;8.690;2022-08-04T00:16:55;6.93;;;5.30;;
13291;SDS011;6714;53.056;8.690;2022-08-04T00:19:38;7.10;;;5.40;;
13291;SDS011;6714;53.056;8.690;2022-08-04T00:22:22;6.63;;;5.13;;
13291;SDS011;6714;53.056;8.690;2022-08-04T00:25:07;6.23;;;5.50;;
13291;SDS011;6714;53.056;8.690;2022-08-04T00:27:51;9.33;;;5.57;;
13291;SDS011;6714;53.056;8.690;2022-08-04T00:30:33;9.53;;;5.80;;
13291;SDS011;6714;53.056;8.690;2022-08-04T00:33:17;9.53;;;6.10;;
13291;SDS011;6714;53.056;8.690;2022-08-04T00:36:00;7.60;;;5.77;;
13291;SDS011;6714;53.056;8.690;2022-08-04T00:38:43;7.50;;;5.90;;
13291;SDS011;6714;53.056;8.690;2022-08-04T00:41:28;10.10;;;6.43;;
13291;SDS011;6714;53.056;8.690;2022-08-04T00:44:16;7.77;;;6.60;;
13291;SDS011;6714;53.056;8.690;2022-08-04T00:47:08;8.07;;;5.67;;
13291;SDS011;6714;53.056;8.690;2022-08-04T00:50:00;7.27;;;6.27;;
13291;SDS011;6714;53.056;8.690;2022-08-04T00:58:57;8.10;;;6.53;;
13291;SDS011;6714;53.056;8.690;2022-08-04T01:01:46;9.10;;;6.93;;
13291;SDS011;6714;53.056;8.690;2022-08-04T01:04:39;9.93;;;6.70;;
13291;SDS011;6714;53.056;8.690;2022-08-04T01:10:27;9.63;;;6.73;;
13291;SDS011;6714;53.056;8.690;2022-08-04T01:13:24;8.60;;;6.77;;
13291;SDS011;6714;53.056;8.690;2022-08-04T01:16:07;7.90;;;7.10;;
13291;SDS011;6714;53.056;8.690;2022-08-04T01:18:54;7.93;;;7.13;;
13291;SDS011;6714;53.056;8.690;2022-08-04T01:21:47;9.03;;;6.97;;
13291;SDS011;6714;53.056;8.690;2022-08-04T01:27:43;8.57;;;6.37;;
13291;SDS011;6714;53.056;8.690;2022-08-04T01:30:32;7.43;;;6.53;;
13291;SDS011;6714;53.056;8.690;2022-08-04T01:33:15;7.33;;;6.33;;
13291;SDS011;6714;53.056;8.690;2022-08-04T01:36:00;8.47;;;6.53;;
13291;SDS011;6714;53.056;8.690;2022-08-04T01:38:44;8.37;;;6.10;;
13291;SDS011;6714;53.056;8.690;2022-08-04T01:41:26;10.60;;;6.90;;
13291;SDS011;6714;53.056;8.690;2022-08-04T01:44:09;10.90;;;7.70;;
13291;SDS011;6714;53.056;8.690;2022-08-04T01:46:53;9.70;;;7.20;;
13291;SDS011;6714;53.056;8.690;2022-08-04T01:49:36;9.17;;;7.23;;
13291;SDS011;6714;53.056;8.690;2022-08-04T01:52:19;9.00;;;7.03;;
13291;SDS011;6714;53.056;8.690;2022-08-04T01:55:02;10.77;;;7.77;;
13291;SDS011;6714;53.056;8.690;2022-08-04T01:57:45;11.63;;;7.80;;
13291;SDS011;6714;53.056;8.690;2022-08-04T02:00:28;9.23;;;8.10;;
13291;SDS011;6714;53.056;8.690;2022-08-04T02:03:11;8.87;;;7.33;;
13291;SDS011;6714;53.056;8.690;2022-08-04T02:05:56;8.77;;;7.33;;
13291;SDS011;6714;53.056;8.690;2022-08-04T02:08:41;8.30;;;6.50;;
13291;SDS011;6714;53.056;8.690;2022-08-04T02:11:26;9.20;;;6.83;;
13291;SDS011;6714;53.056;8.690;2022-08-04T02:14:13;9.30;;;7.47;;
13291;SDS011;6714;53.056;8.690;2022-08-04T02:17:18;11.03;;;7.47;;
13291;SDS011;6714;53.056;8.690;2022-08-04T02:20:06;9.50;;;7.80;;
13291;SDS011;6714;53.056;8.690;2022-08-04T02:22:52;7.97;;;6.43;;
13291;SDS011;6714;53.056;8.690;2022-08-04T02:25:36;8.10;;;6.27;;
13291;SDS011;6714;53.056;8.690;2022-08-04T02:28:25;12.83;;;7.07;;
13291;SDS011;6714;53.056;8.690;2022-08-04T02:31:13;8.37;;;7.40;;
13291;SDS011;6714;53.056;8.690;2022-08-04T02:34:00;9.10;;;7.27;;
13291;SDS011;6714;53.056;8.690;2022-08-04T02:36:47;9.33;;;8.10;;
13291;SDS011;6714;53.056;8.690;2022-08-04T02:39:32;9.30;;;7.70;;
13291;SDS011;6714;53.056;8.690;2022-08-04T02:42:14;9.23;;;8.17;;
13291;SDS011;6714;53.056;8.690;2022-08-04T02:44:58;8.80;;;7.80;;
13291;SDS011;6714;53.056;8.690;2022-08-04T02:47:40;10.23;;;7.87;;
13291;SDS011;6714;53.056;8.690;2022-08-04T02:50:22;9.00;;;7.37;;
13291;SDS011;6714;53.056;8.690;2022-08-04T02:53:06;9.23;;;7.70;;
13291;SDS011;6714;53.056;8.690;2022-08-04T02:55:52;11.47;;;9.30;;
13291;SDS011;6714;53.056;8.690;2022-08-04T02:58:36;8.63;;;7.00;;
13291;SDS011;6714;53.056;8.690;2022-08-04T03:01:18;10.17;;;8.63;;
13291;SDS011;6714;53.056;8.690;2022-08-04T03:04:11;9.57;;;7.87;;
13291;SDS011;6714;53.056;8.690;2022-08-04T03:07:09;8.70;;;7.20;;
13291;SDS011;6714;53.056;8.690;2022-08-04T03:10:06;8.20;;;7.37;;
13291;SDS011;6714;53.056;8.690;2022-08-04T03:12:58;7.97;;;6.87;;
13291;SDS011;6714;53.056;8.690;2022-08-04T03:15:53;7.80;;;6.93;;
13291;SDS011;6714;53.056;8.690;2022-08-04T03:25:08;13.17;;;8.30;;
13291;SDS011;6714;53.056;8.690;2022-08-04T03:28:03;10.50;;;7.50;;
13291;SDS011;6714;53.056;8.690;2022-08-04T03:30:58;11.40;;;8.07;;
13291;SDS011;6714;53.056;8.690;2022-08-04T03:33:49;11.20;;;7.73;;
13291;SDS011;6714;53.056;8.690;2022-08-04T03:36:47;10.37;;;7.87;;
13291;SDS011;6714;53.056;8.690;2022-08-04T03:40:06;9.33;;;7.73;;
13291;SDS011;6714;53.056;8.690;2022-08-04T03:43:14;11.17;;;7.97;;
13291;SDS011;6714;53.056;8.690;2022-08-04T03:49:07;12.87;;;8.87;;
13291;SDS011;6714;53.056;8.690;2022-08-04T03:51:54;13.30;;;8.20;;
13291;SDS011;6714;53.056;8.690;2022-08-04T03:55:09;13.57;;;7.50;;
13291;SDS011;6714;53.056;8.690;2022-08-04T04:01:11;10.93;;;7.77;;
13291;SDS011;6714;53.056;8.690;2022-08-04T04:03:57;8.53;;;7.67;;
13291;SDS011;6714;53.056;8.690;2022-08-04T04:07:05;9.47;;;7.83;;
13291;SDS011;6714;53.056;8.690;2022-08-04T04:10:01;12.77;;;8.10;;
13291;SDS011;6714;53.056;8.690;2022-08-04T04:15:56;11.40;;;8.13;;
13291;SDS011;6714;53.056;8.690;2022-08-04T04:21:44;10.27;;;8.83;;
13291;SDS011;6714;53.056;8.690;2022-08-04T04:24:39;11.77;;;8.33;;
13291;SDS011;6714;53.056;8.690;2022-08-04T04:27:29;9.10;;;7.77;;
13291;SDS011;6714;53.056;8.690;2022-08-04T04:30:16;11.33;;;7.53;;
13291;SDS011;6714;53.056;8.690;2022-08-04T04:33:10;9.63;;;6.90;;
13291;SDS011;6714;53.056;8.690;2022-08-04T04:35:59;14.63;;;9.30;;
13291;SDS011;6714;53.056;8.690;2022-08-04T04:38:46;12.10;;;9.00;;
13291;SDS011;6714;53.056;8.690;2022-08-04T04:41:45;7.63;;;6.67;;
13291;SDS011;6714;53.056;8.690;2022-08-04T04:44:42;9.50;;;7.03;;
13291;SDS011;6714;53.056;8.690;2022-08-04T04:47:29;8.53;;;6.50;;
13291;SDS011;6714;53.056;8.690;2022-08-04T04:50:13;9.57;;;7.13;;
13291;SDS011;6714;53.056;8.690;2022-08-04T04:52:57;9.83;;;7.97;;
13291;SDS011;6714;53.056;8.690;2022-08-04T04:55:46;12.60;;;9.00;;
13291;SDS011;6714;53.056;8.690;2022-08-04T04:58:32;11.13;;;8.67;;
13291;SDS011;6714;53.056;8.690;2022-08-04T05:04:20;9.87;;;7.47;;
13291;SDS011;6714;53.056;8.690;2022-08-04T05:07:15;8.93;;;7.10;;
13291;SDS011;6714;53.056;8.690;2022-08-04T05:10:04;11.00;;;8.17;;
13291;SDS011;6714;53.056;8.690;2022-08-04T05:12:51;10.60;;;7.03;;
13291;SDS011;6714;53.056;8.690;2022-08-04T05:15:39;8.97;;;7.07;;
13291;SDS011;6714;53.056;8.690;2022-08-04T05:18:24;10.13;;;7.00;;
13291;SDS011;6714;53.056;8.690;2022-08-04T05:21:09;9.80;;;6.60;;
13291;SDS011;6714;53.056;8.690;2022-08-04T05:23:57;9.70;;;7.47;;
13291;SDS011;6714;53.056;8.690;2022-08-04T05:26:43;11.57;;;8.00;;
13291;SDS011;6714;53.056;8.690;2022-08-04T05:29:28;11.13;;;7.43;;
13291;SDS011;6714;53.056;8.690;2022-08-04T05:32:13;11.70;;;7.57;;
13291;SDS011;6714;53.056;8.690;2022-08-04T05:34:56;9.73;;;7.30;;
13291;SDS011;6714;53.056;8.690;2022-08-04T05:37:41;9.30;;;6.77;;
13291;SDS011;6714;53.056;8.690;2022-08-04T05:40:24;10.33;;;7.40;;
13291;SDS011;6714;53.056;8.690;2022-08-04T05:43:07;9.80;;;7.63;;
13291;SDS011;6714;53.056;8.690;2022-08-04T05:45:51;8.97;;;7.17;;
13291;SDS011;6714;53.056;8.690;2022-08-04T05:48:33;10.80;;;6.30;;
13291;SDS011;6714;53.056;8.690;2022-08-04T05:51:16;10.37;;;7.33;;
13291;SDS011;6714;53.056;8.690;2022-08-04T05:53:59;12.53;;;7.50;;
13291;SDS011;6714;53.056;8.690;2022-08-04T05:56:41;11.30;;;7.57;;
13291;SDS011;6714;53.056;8.690;2022-08-04T05:59:24;9.30;;;7.47;;
13291;SDS011;6714;53.056;8.690;2022-08-04T06:02:07;11.57;;;7.27;;
13291;SDS011;6714;53.056;8.690;2022-08-04T06:04:50;10.27;;;7.90;;
13291;SDS011;6714;53.056;8.690;2022-08-04T06:07:33;7.97;;;6.03;;
13291;SDS011;6714;53.056;8.690;2022-08-04T06:10:15;9.80;;;6.00;;
13291;SDS011;6714;53.056;8.690;2022-08-04T06:13:00;10.37;;;6.47;;
13291;SDS011;6714;53.056;8.690;2022-08-04T06:15:43;10.80;;;6.90;;
13291;SDS011;6714;53.056;8.690;2022-08-04T06:18:28;9.00;;;6.87;;
13291;SDS011;6714;53.056;8.690;2022-08-04T06:21:11;7.80;;;5.53;;
13291;SDS011;6714;53.056;8.690;2022-08-04T06:23:54;10.60;;;6.10;;
13291;SDS011;6714;53.056;8.690;2022-08-04T06:26:38;8.93;;;7.13;;
13291;SDS011;6714;53.056;8.690;2022-08-04T06:29:20;13.97;;;6.67;;
13291;SDS011;6714;53.056;8.690;2022-08-04T06:32:07;9.60;;;6.10;;
13291;SDS011;6714;53.056;8.690;2022-08-04T06:35:05;8.13;;;5.10;;
13291;SDS011;6714;53.056;8.690;2022-08-04T06:37:48;10.00;;;6.20;;
13291;SDS011;6714;53.056;8.690;2022-08-04T06:40:31;11.63;;;6.53;;
13291;SDS011;6714;53.056;8.690;2022-08-04T06:43:14;9.30;;;6.70;;
13291;SDS011;6714;53.056;8.690;2022-08-04T06:45:56;10.27;;;6.60;;
13291;SDS011;6714;53.056;8.690;2022-08-04T06:48:41;7.47;;;5.93;;
13291;SDS011;6714;53.056;8.690;2022-08-04T06:51:25;8.57;;;5.47;;
13291;SDS011;6714;53.056;8.690;2022-08-04T06:54:08;9.10;;;5.33;;
13291;SDS011;6714;53.056;8.690;2022-08-04T06:56:50;8.43;;;5.30;;
13291;SDS011;6714;53.056;8.690;2022-08-04T06:59:34;8.97;;;4.93;;
13291;SDS011;6714;53.056;8.690;2022-08-04T07:02:17;9.63;;;5.60;;
13291;SDS011;6714;53.056;8.690;2022-08-04T07:05:01;5.73;;;4.87;;
13291;SDS011;6714;53.056;8.690;2022-08-04T07:07:47;10.60;;;4.67;;
13291;SDS011;6714;53.056;8.690;2022-08-04T07:10:29;8.60;;;4.90;;
13291;SDS011;6714;53.056;8.690;2022-08-04T07:13:11;6.63;;;4.47;;
13291;SDS011;6714;53.056;8.690;2022-08-04T07:15:54;6.50;;;3.77;;
13291;SDS011;6714;53.056;8.690;2022-08-04T07:18:36;7.30;;;4.43;;
13291;SDS011;6714;53.056;8.690;2022-08-04T07:21:19;6.60;;;4.10;;
13291;SDS011;6714;53.056;8.690;2022-08-04T07:24:04;6.93;;;4.53;;
13291;SDS011;6714;53.056;8.690;2022-08-04T07:26:48;10.40;;;3.70;;
13291;SDS011;6714;53.056;8.690;2022-08-04T07:29:31;7.10;;;4.10;;
13291;SDS011;6714;53.056;8.690;2022-08-04T07:32:13;6.30;;;4.10;;
13291;SDS011;6714;53.056;8.690;2022-08-04T07:34:56;8.03;;;4.17;;
13291;SDS011;6714;53.056;8.690;2022-08-04T07:37:39;12.33;;;4.60;;
13291;SDS011;6714;53.056;8.690;2022-08-04T07:40:22;6.90;;;4.03;;
13291;SDS011;6714;53.056;8.690;2022-08-04T07:43:05;7.97;;;4.30;;
13291;SDS011;6714;53.056;8.690;2022-08-04T07:45:47;6.23;;;3.60;;
13291;SDS011;6714;53.056;8.690;2022-08-04T07:48:29;8.63;;;3.77;;
13291;SDS011;6714;53.056;8.690;2022-08-04T07:51:12;5.87;;;3.67;;
13291;SDS011;6714;53.056;8.690;2022-08-04T07:53:54;5.37;;;3.43;;
13291;SDS011;6714;53.056;8.690;2022-08-04T07:56:38;8.37;;;4.10;;
13291;SDS011;6714;53.056;8.690;2022-08-04T07:59:21;6.80;;;3.20;;
13291;SDS011;6714;53.056;8.690;2022-08-04T08:02:03;7.47;;;3.30;;
13291;SDS011;6714;53.056;8.690;2022-08-04T08:04:46;7.70;;;3.80;;
13291;SDS011;6714;53.056;8.690;2022-08-04T08:07:28;7.93;;;3.40;;
13291;SDS011;6714;53.056;8.690;2022-08-04T08:10:11;7.67;;;3.47;;
13291;SDS011;6714;53.056;8.690;2022-08-04T08:12:54;8.63;;;3.50;;
13291;SDS011;6714;53.056;8.690;2022-08-04T08:15:37;8.17;;;3.10;;
13291;SDS011;6714;53.056;8.690;2022-08-04T08:18:19;6.57;;;3.10;;
13291;SDS011;6714;53.056;8.690;2022-08-04T08:21:02;5.97;;;3.20;;
13291;SDS011;6714;53.056;8.690;2022-08-04T08:23:44;6.72;;;3.03;;
13291;SDS011;6714;53.056;8.690;2022-08-04T08:26:26;6.03;;;2.83;;
13291;SDS011;6714;53.056;8.690;2022-08-04T08:29:11;5.60;;;3.03;;
13291;SDS011;6714;53.056;8.690;2022-08-04T08:31:55;5.50;;;2.60;;
13291;SDS011;6714;53.056;8.690;2022-08-04T08:34:37;4.50;;;2.55;;
13291;SDS011;6714;53.056;8.690;2022-08-04T08:37:21;5.47;;;2.63;;
13291;SDS011;6714;53.056;8.690;2022-08-04T08:40:11;3.05;;;2.65;;
13291;SDS011;6714;53.056;8.690;2022-08-04T08:43:12;4.50;;;2.65;;
13291;SDS011;6714;53.056;8.690;2022-08-04T08:48:59;3.30;;;2.50;;
13291;SDS011;6714;53.056;8.690;2022-08-04T08:54:46;2.90;;;2.22;;
13291;SDS011;6714;53.056;8.690;2022-08-04T09:00:35;3.22;;;2.58;;
13291;SDS011;6714;53.056;8.690;2022-08-04T09:03:41;3.88;;;2.70;;
13291;SDS011;6714;53.056;8.690;2022-08-04T09:06:35;2.78;;;2.47;;
13291;SDS011;6714;53.056;8.690;2022-08-04T09:09:34;3.40;;;2.38;;
13291;SDS011;6714;53.056;8.690;2022-08-04T09:12:23;2.97;;;2.00;;
13291;SDS011;6714;53.056;8.690;2022-08-04T09:15:09;2.95;;;2.38;;
13291;SDS011;6714;53.056;8.690;2022-08-04T09:17:53;2.85;;;2.30;;
13291;SDS011;6714;53.056;8.690;2022-08-04T09:20:38;2.80;;;2.35;;
13291;SDS011;6714;53.056;8.690;2022-08-04T09:23:26;2.67;;;2.20;;
13291;SDS011;6714;53.056;8.690;2022-08-04T09:26:10;2.50;;;2.30;;
13291;SDS011;6714;53.056;8.690;2022-08-04T09:28:57;2.55;;;2.35;;
13291;SDS011;6714;53.056;8.690;2022-08-04T09:31:43;2.90;;;2.08;;
13291;SDS011;6714;53.056;8.690;2022-08-04T09:34:31;2.90;;;1.90;;
13291;SDS011;6714;53.056;8.690;2022-08-04T09:37:16;3.88;;;2.30;;
13291;SDS011;6714;53.056;8.690;2022-08-04T09:40:05;2.42;;;2.22;;
13291;SDS011;6714;53.056;8.690;2022-08-04T09:42:49;2.10;;;1.90;;
13291;SDS011;6714;53.056;8.690;2022-08-04T09:45:36;3.17;;;2.20;;
13291;SDS011;6714;53.056;8.690;2022-08-04T09:48:20;2.40;;;2.20;;
13291;SDS011;6714;53.056;8.690;2022-08-04T09:51:10;4.28;;;2.20;;
13291;SDS011;6714;53.056;8.690;2022-08-04T09:53:56;3.28;;;2.15;;
13291;SDS011;6714;53.056;8.690;2022-08-04T09:56:47;3.25;;;2.00;;
13291;SDS011;6714;53.056;8.690;2022-08-04T09:59:35;2.05;;;1.95;;
13291;SDS011;6714;53.056;8.690;2022-08-04T10:02:22;2.03;;;1.90;;
13291;SDS011;6714;53.056;8.690;2022-08-04T10:05:10;2.13;;;1.85;;
13291;SDS011;6714;53.056;8.690;2022-08-04T10:08:01;2.17;;;1.98;;
13291;SDS011;6714;53.056;8.690;2022-08-04T10:10:48;2.58;;;1.73;;
13291;SDS011;6714;53.056;8.690;2022-08-04T10:13:38;2.35;;;1.90;;
13291;SDS011;6714;53.056;8.690;2022-08-04T10:16:28;2.55;;;1.70;;
13291;SDS011;6714;53.056;8.690;2022-08-04T10:19:16;11.73;;;2.95;;
13291;SDS011;6714;53.056;8.690;2022-08-04T10:22:05;5.60;;;2.53;;
13291;SDS011;6714;53.056;8.690;2022-08-04T10:24:52;3.88;;;2.28;;
13291;SDS011;6714;53.056;8.690;2022-08-04T10:27:40;8.43;;;3.80;;
13291;SDS011;6714;53.056;8.690;2022-08-04T10:30:23;6.60;;;4.28;;
13291;SDS011;6714;53.056;8.690;2022-08-04T10:33:08;2.13;;;2.00;;
13291;SDS011;6714;53.056;8.690;2022-08-04T10:35:53;2.08;;;1.92;;
13291;SDS011;6714;53.056;8.690;2022-08-04T10:38:37;2.13;;;1.95;;
13291;SDS011;6714;53.056;8.690;2022-08-04T10:41:24;1.67;;;1.65;;
13291;SDS011;6714;53.056;8.690;2022-08-04T10:44:12;17.85;;;5.35;;
13291;SDS011;6714;53.056;8.690;2022-08-04T10:46:59;10.02;;;3.50;;
13291;SDS011;6714;53.056;8.690;2022-08-04T10:49:42;4.05;;;2.33;;
13291;SDS011;6714;53.056;8.690;2022-08-04T10:52:28;1.90;;;1.70;;
13291;SDS011;6714;53.056;8.690;2022-08-04T10:55:15;1.83;;;1.73;;
13291;SDS011;6714;53.056;8.690;2022-08-04T10:57:58;2.25;;;2.05;;
13291;SDS011;6714;53.056;8.690;2022-08-04T11:00:41;1.90;;;1.80;;
13291;SDS011;6714;53.056;8.690;2022-08-04T11:03:29;2.05;;;1.70;;
13291;SDS011;6714;53.056;8.690;2022-08-04T11:06:15;2.95;;;1.70;;
13291;SDS011;6714;53.056;8.690;2022-08-04T11:08:58;2.17;;;1.88;;
13291;SDS011;6714;53.056;8.690;2022-08-04T11:11:42;1.63;;;1.52;;
13291;SDS011;6714;53.056;8.690;2022-08-04T11:14:26;1.70;;;1.50;;
13291;SDS011;6714;53.056;8.690;2022-08-04T11:17:10;1.88;;;1.77;;
13291;SDS011;6714;53.056;8.690;2022-08-04T11:19:58;1.83;;;1.73;;
13291;SDS011;6714;53.056;8.690;2022-08-04T11:22:43;1.58;;;1.48;;
13291;SDS011;6714;53.056;8.690;2022-08-04T11:25:28;1.73;;;1.60;;
13291;SDS011;6714;53.056;8.690;2022-08-04T11:28:17;1.83;;;1.73;;
13291;SDS011;6714;53.056;8.690;2022-08-04T11:31:02;2.03;;;1.60;;
13291;SDS011;6714;53.056;8.690;2022-08-04T11:33:46;1.70;;;1.60;;
13291;SDS011;6714;53.056;8.690;2022-08-04T11:36:33;1.90;;;1.80;;
13291;SDS011;6714;53.056;8.690;2022-08-04T11:39:20;4.30;;;1.88;;
13291;SDS011;6714;53.056;8.690;2022-08-04T11:42:06;1.67;;;1.58;;
13291;SDS011;6714;53.056;8.690;2022-08-04T11:44:54;2.08;;;1.88;;
13291;SDS011;6714;53.056;8.690;2022-08-04T11:47:40;2.28;;;1.92;;
13291;SDS011;6714;53.056;8.690;2022-08-04T11:50:26;2.53;;;1.90;;
13291;SDS011;6714;53.056;8.690;2022-08-04T11:53:12;1.90;;;1.80;;
13291;SDS011;6714;53.056;8.690;2022-08-04T11:55:59;2.38;;;1.60;;
13291;SDS011;6714;53.056;8.690;2022-08-04T11:58:42;1.63;;;1.60;;
13291;SDS011;6714;53.056;8.690;2022-08-04T12:01:27;2.17;;;1.50;;
13291;SDS011;6714;53.056;8.690;2022-08-04T12:04:13;1.80;;;1.70;;
13291;SDS011;6714;53.056;8.690;2022-08-04T12:07:00;1.50;;;1.50;;
13291;SDS011;6714;53.056;8.690;2022-08-04T12:09:46;1.55;;;1.45;;
13291;SDS011;6714;53.056;8.690;2022-08-04T12:12:31;1.85;;;1.70;;
13291;SDS011;6714;53.056;8.690;2022-08-04T12:15:17;2.00;;;1.80;;
13291;SDS011;6714;53.056;8.690;2022-08-04T12:18:06;1.70;;;1.60;;
13291;SDS011;6714;53.056;8.690;2022-08-04T12:20:50;2.88;;;1.52;;
13291;SDS011;6714;53.056;8.690;2022-08-04T12:23:37;1.80;;;1.55;;
13291;SDS011;6714;53.056;8.690;2022-08-04T12:26:22;1.70;;;1.55;;
13291;SDS011;6714;53.056;8.690;2022-08-04T12:29:05;1.50;;;1.50;;
13291;SDS011;6714;53.056;8.690;2022-08-04T12:31:50;1.40;;;1.30;;
13291;SDS011;6714;53.056;8.690;2022-08-04T12:34:34;1.35;;;1.35;;
13291;SDS011;6714;53.056;8.690;2022-08-04T12:37:22;1.65;;;1.48;;
13291;SDS011;6714;53.056;8.690;2022-08-04T12:40:10;1.55;;;1.40;;
13291;SDS011;6714;53.056;8.690;2022-08-04T12:42:55;1.40;;;1.30;;
13291;SDS011;6714;53.056;8.690;2022-08-04T12:45:41;1.55;;;1.55;;
13291;SDS011;6714;53.056;8.690;2022-08-04T12:48:24;1.45;;;1.40;;
13291;SDS011;6714;53.056;8.690;2022-08-04T12:51:07;1.60;;;1.50;;
13291;SDS011;6714;53.056;8.690;2022-08-04T12:53:51;1.65;;;1.20;;
13291;SDS011;6714;53.056;8.690;2022-08-04T12:56:33;1.50;;;1.40;;
13291;SDS011;6714;53.056;8.690;2022-08-04T12:59:17;1.30;;;1.30;;
13291;SDS011;6714;53.056;8.690;2022-08-04T13:02:01;1.95;;;1.60;;
13291;SDS011;6714;53.056;8.690;2022-08-04T13:04:44;1.13;;;1.13;;
13291;SDS011;6714;53.056;8.690;2022-08-04T13:07:27;1.83;;;1.40;;
13291;SDS011;6714;53.056;8.690;2022-08-04T13:10:16;1.73;;;1.40;;
13291;SDS011;6714;53.056;8.690;2022-08-04T13:13:00;1.48;;;1.45;;
13291;SDS011;6714;53.056;8.690;2022-08-04T13:15:54;1.35;;;1.25;;
13291;SDS011;6714;53.056;8.690;2022-08-04T13:18:39;1.40;;;1.30;;
13291;SDS011;6714;53.056;8.690;2022-08-04T13:21:23;2.50;;;1.40;;
13291;SDS011;6714;53.056;8.690;2022-08-04T13:24:10;1.55;;;1.45;;
13291;SDS011;6714;53.056;8.690;2022-08-04T13:26:54;2.60;;;1.70;;
13291;SDS011;6714;53.056;8.690;2022-08-04T13:29:38;1.60;;;1.27;;
13291;SDS011;6714;53.056;8.690;2022-08-04T13:32:23;1.60;;;1.50;;
13291;SDS011;6714;53.056;8.690;2022-08-04T13:35:06;1.67;;;1.58;;
13291;SDS011;6714;53.056;8.690;2022-08-04T13:37:50;1.60;;;1.50;;
13291;SDS011;6714;53.056;8.690;2022-08-04T13:40:32;1.88;;;1.77;;
13291;SDS011;6714;53.056;8.690;2022-08-04T13:43:22;4.50;;;2.05;;
13291;SDS011;6714;53.056;8.690;2022-08-04T13:46:04;2.33;;;2.00;;
13291;SDS011;6714;53.056;8.690;2022-08-04T13:48:48;3.67;;;2.20;;
13291;SDS011;6714;53.056;8.690;2022-08-04T13:51:30;3.92;;;2.38;;
13291;SDS011;6714;53.056;8.690;2022-08-04T13:54:13;2.90;;;2.15;;
13291;SDS011;6714;53.056;8.690;2022-08-04T13:56:57;2.83;;;2.22;;
13291;SDS011;6714;53.056;8.690;2022-08-04T13:59:42;2.78;;;1.92;;
13291;SDS011;6714;53.056;8.690;2022-08-04T14:02:29;4.22;;;2.53;;
13291;SDS011;6714;53.056;8.690;2022-08-04T14:05:14;5.07;;;2.58;;
13291;SDS011;6714;53.056;8.690;2022-08-04T14:07:59;4.28;;;2.50;;
13291;SDS011;6714;53.056;8.690;2022-08-04T14:10:52;2.88;;;1.80;;
13291;SDS011;6714;53.056;8.690;2022-08-04T14:13:34;2.72;;;2.22;;
13291;SDS011;6714;53.056;8.690;2022-08-04T14:16:17;2.45;;;2.20;;
13291;SDS011;6714;53.056;8.690;2022-08-04T14:18:59;5.07;;;2.35;;
13291;SDS011;6714;53.056;8.690;2022-08-04T14:21:44;4.78;;;2.50;;
13291;SDS011;6714;53.056;8.690;2022-08-04T14:24:27;4.13;;;2.17;;
13291;SDS011;6714;53.056;8.690;2022-08-04T14:27:09;3.85;;;2.13;;
13291;SDS011;6714;53.056;8.690;2022-08-04T14:29:51;3.13;;;2.00;;
13291;SDS011;6714;53.056;8.690;2022-08-04T14:32:34;4.05;;;2.47;;
13291;SDS011;6714;53.056;8.690;2022-08-04T14:35:35;5.28;;;2.63;;
13291;SDS011;6714;53.056;8.690;2022-08-04T14:38:19;5.22;;;2.28;;
13291;SDS011;6714;53.056;8.690;2022-08-04T14:41:01;3.65;;;2.38;;
13291;SDS011;6714;53.056;8.690;2022-08-04T14:43:44;3.95;;;2.20;;
13291;SDS011;6714;53.056;8.690;2022-08-04T14:46:26;3.60;;;2.20;;
13291;SDS011;6714;53.056;8.690;2022-08-04T14:49:09;3.10;;;2.30;;
13291;SDS011;6714;53.056;8.690;2022-08-04T14:51:52;5.22;;;2.30;;
13291;SDS011;6714;53.056;8.690;2022-08-04T14:54:37;3.00;;;2.13;;
13291;SDS011;6714;53.056;8.690;2022-08-04T14:57:19;4.10;;;2.10;;
13291;SDS011;6714;53.056;8.690;2022-08-04T15:00:02;2.53;;;2.05;;
13291;SDS011;6714;53.056;8.690;2022-08-04T15:02:44;2.30;;;2.10;;
13291;SDS011;6714;53.056;8.690;2022-08-04T15:05:26;2.15;;;1.95;;
13291;SDS011;6714;53.056;8.690;2022-08-04T15:08:09;3.65;;;2.17;;
13291;SDS011;6714;53.056;8.690;2022-08-04T15:10:55;2.25;;;2.05;;
13291;SDS011;6714;53.056;8.690;2022-08-04T15:13:38;3.85;;;2.00;;
13291;SDS011;6714;53.056;8.690;2022-08-04T15:16:21;2.22;;;2.00;;
13291;SDS011;6714;53.056;8.690;2022-08-04T15:19:03;2.20;;;2.00;;
13291;SDS011;6714;53.056;8.690;2022-08-04T15:21:48;2.00;;;1.90;;
13291;SDS011;6714;53.056;8.690;2022-08-04T15:24:30;2.28;;;2.17;;
13291;SDS011;6714;53.056;8.690;2022-08-04T15:27:13;4.43;;;1.88;;
13291;SDS011;6714;53.056;8.690;2022-08-04T15:29:58;2.50;;;1.90;;
13291;SDS011;6714;53.056;8.690;2022-08-04T15:32:53;1.98;;;1.88;;
13291;SDS011;6714;53.056;8.690;2022-08-04T15:35:38;2.15;;;1.98;;
13291;SDS011;6714;53.056;8.690;2022-08-04T15:38:24;2.58;;;2.00;;
13291;SDS011;6714;53.056;8.690;2022-08-04T15:41:09;2.58;;;2.13;;
13291;SDS011;6714;53.056;8.690;2022-08-04T15:44:00;2.80;;;2.10;;
13291;SDS011;6714;53.056;8.690;2022-08-04T15:49:44;2.53;;;2.33;;
13291;SDS011;6714;53.056;8.690;2022-08-04T15:52:27;2.10;;;2.00;;
13291;SDS011;6714;53.056;8.690;2022-08-04T15:58:06;3.55;;;3.00;;
13291;SDS011;6714;53.056;8.690;2022-08-04T16:03:51;4.85;;;2.63;;
13291;SDS011;6714;53.056;8.690;2022-08-04T16:06:40;4.30;;;3.25;;
13291;SDS011;6714;53.056;8.690;2022-08-04T16:09:25;2.78;;;2.35;;
13291;SDS011;6714;53.056;8.690;2022-08-04T16:12:07;3.97;;;3.00;;
13291;SDS011;6714;53.056;8.690;2022-08-04T16:14:50;3.90;;;2.50;;
13291;SDS011;6714;53.056;8.690;2022-08-04T16:17:32;4.18;;;2.58;;
13291;SDS011;6714;53.056;8.690;2022-08-04T16:20:22;3.03;;;2.30;;
13291;SDS011;6714;53.056;8.690;2022-08-04T16:23:15;3.03;;;2.50;;
13291;SDS011;6714;53.056;8.690;2022-08-04T16:25:59;3.47;;;2.40;;
13291;SDS011;6714;53.056;8.690;2022-08-04T16:28:41;2.60;;;2.40;;
13291;SDS011;6714;53.056;8.690;2022-08-04T16:31:23;4.18;;;2.50;;
13291;SDS011;6714;53.056;8.690;2022-08-04T16:34:06;2.60;;;2.00;;
13291;SDS011;6714;53.056;8.690;2022-08-04T16:36:54;2.35;;;1.83;;
13291;SDS011;6714;53.056;8.690;2022-08-04T16:39:37;3.00;;;2.13;;
13291;SDS011;6714;53.056;8.690;2022-08-04T16:42:32;3.05;;;2.00;;
13291;SDS011;6714;53.056;8.690;2022-08-04T16:45:15;2.85;;;2.08;;
13291;SDS011;6714;53.056;8.690;2022-08-04T16:48:00;2.65;;;1.80;;
13291;SDS011;6714;53.056;8.690;2022-08-04T16:50:47;2.13;;;1.92;;
13291;SDS011;6714;53.056;8.690;2022-08-04T16:53:33;2.35;;;2.00;;
13291;SDS011;6714;53.056;8.690;2022-08-04T16:56:15;1.90;;;1.80;;
13291;SDS011;6714;53.056;8.690;2022-08-04T16:58:59;1.60;;;1.50;;
13291;SDS011;6714;53.056;8.690;2022-08-04T17:01:47;2.45;;;1.92;;
13291;SDS011;6714;53.056;8.690;2022-08-04T17:04:29;3.78;;;1.95;;
13291;SDS011;6714;53.056;8.690;2022-08-04T17:07:12;2.88;;;1.70;;
13291;SDS011;6714;53.056;8.690;2022-08-04T17:09:55;1.65;;;1.50;;
13291;SDS011;6714;53.056;8.690;2022-08-04T17:12:37;2.38;;;1.80;;
13291;SDS011;6714;53.056;8.690;2022-08-04T17:15:20;1.88;;;1.77;;
13291;SDS011;6714;53.056;8.690;2022-08-04T17:18:15;2.38;;;1.67;;
13291;SDS011;6714;53.056;8.690;2022-08-04T17:20:58;1.70;;;1.60;;
13291;SDS011;6714;53.056;8.690;2022-08-04T17:23:41;1.92;;;1.83;;
13291;SDS011;6714;53.056;8.690;2022-08-04T17:26:26;1.60;;;1.50;;
13291;SDS011;6714;53.056;8.690;2022-08-04T17:29:08;1.67;;;1.48;;
13291;SDS011;6714;53.056;8.690;2022-08-04T17:31:50;2.10;;;1.50;;
13291;SDS011;6714;53.056;8.690;2022-08-04T17:34:33;1.50;;;1.40;;
13291;SDS011;6714;53.056;8.690;2022-08-04T17:37:15;1.35;;;1.25;;
13291;SDS011;6714;53.056;8.690;2022-08-04T17:40:06;1.83;;;1.50;;
13291;SDS011;6714;53.056;8.690;2022-08-04T17:42:50;1.55;;;1.45;;
13291;SDS011;6714;53.056;8.690;2022-08-04T17:45:41;2.10;;;1.50;;